Thunder radar more information blitzortung!


Löydät sääaseman tiedot myös:

European Weather Network

Finland Weather Exchange

Weather Underground

AWEKAS



Weather Underground säähistoriasivu

Päivittäin yhteenveto Huhtikuu 5, 2017 Yksiköt:  Englantilaiset    Metriset   Molemmat
« Edellinen Päivä
Seuraava Päivä »
Päivittäin Viikoittain Kuukausittain Vuosittain Mukautettu
  Korkea: Matala: Keskiarvo:
Lämpötila: TemperatureC °F -0.4 °F 4.5 °F
Kastepiste: DewpointC °F -1.3 °F 2 °F
Kosteus: Humidity % 62 % 83 %
Tuulen nopeus: WindSpeedKMH mph 0.0 mph 3.4 mph
Tuulenpuuska: WindSpeedGustKMH mph - -
Tuuli:- - SSW
Ilmanpaine: PressurehPa in 998.5 in -
Sade: 0.0 in    
Historical Graphs
 
 
Taulukkotiedot Huhtikuu 5, 2017
Aika Lämpötila Kastepiste Ilmanpaine Tuuli Tuulen nopeus Tuulenpuuska Kosteus Sademäärä (tunneittain)
TemperatureC °F DewpointC °F PressurehPa in Calm     Humidity % HourlyPrecipMM in
00:00 4.7 °F 2.4 °F 1006.3 in SSW 8.0 mph 20.9 mph 85 % 0.0 in
00:15 4.5 °F 2.2 °F 1006.3 in SSW 8.0 mph 16.1 mph 85 % 0.0 in
00:30 4.5 °F 2.4 °F 1006.0 in SSW 8.0 mph 20.9 mph 86 % 0.0 in
00:45 4.3 °F 2.2 °F 1006.0 in SSW 6.4 mph 11.3 mph 86 % 0.0 in
01:00 4.2 °F 2.2 °F 1005.6 in SSW 9.7 mph 22.5 mph 87 % 0.0 in
01:15 4.1 °F 2.1 °F 1005.6 in SW 4.8 mph 12.9 mph 87 % 0.0 in
01:30 4.1 °F 2.1 °F 1005.3 in SSW 6.4 mph 14.5 mph 87 % 0.0 in
01:45 4.1 °F 2.2 °F 1005.3 in SSW 8.0 mph 17.7 mph 88 % 0.0 in
02:00 3.9 °F 2.1 °F 1005.0 in SSW 8.0 mph 17.7 mph 88 % 0.0 in
02:15 3.8 °F 2.0 °F 1005.0 in SSW 8.0 mph 17.7 mph 88 % 0.0 in
02:30 3.7 °F 1.9 °F 1005.0 in SW 3.2 mph 11.3 mph 88 % 0.0 in
02:45 3.6 °F 1.9 °F 1005.0 in SW 4.8 mph 16.1 mph 89 % 0.0 in
03:00 3.4 °F 1.8 °F 1005.0 in SSW 3.2 mph 11.3 mph 89 % 0.0 in
03:15 3.3 °F 1.7 °F 1004.6 in SSW 4.8 mph 12.9 mph 89 % 0.0 in
03:30 3.2 °F 1.7 °F 1004.6 in SSW 4.8 mph 11.3 mph 90 % 0.0 in
03:45 3.1 °F 1.8 °F 1004.3 in SSW 4.8 mph 12.9 mph 91 % 0.0 in
04:00 3.0 °F 1.7 °F 1003.9 in South 1.6 mph 9.7 mph 91 % 0.0 in
04:15 2.9 °F 1.6 °F 1003.9 in SSW 3.2 mph 9.7 mph 91 % 0.0 in
04:30 2.9 °F 1.6 °F 1003.6 in South 1.6 mph 8.0 mph 91 % 0.0 in
04:45 2.8 °F 1.7 °F 1003.6 in SSW 1.6 mph 14.5 mph 92 % 0.0 in
05:00 2.8 °F 1.7 °F 1003.3 in SSW 3.2 mph 8.0 mph 92 % 0.0 in
05:15 2.8 °F 1.7 °F 1002.9 in SSW 3.2 mph 9.7 mph 92 % 0.0 in
05:30 2.9 °F 1.9 °F 1002.9 in SSW 3.2 mph 11.3 mph 93 % 0.0 in
05:45 2.9 °F 1.9 °F 1002.6 in SSW 3.2 mph 9.7 mph 93 % 0.0 in
06:00 2.9 °F 1.9 °F 1002.3 in SSW 1.6 mph 12.9 mph 93 % 0.0 in
06:15 3.0 °F 2.0 °F 1001.9 in SSW 6.4 mph 12.9 mph 93 % 0.0 in
06:30 3.0 °F 2.0 °F 1001.9 in SSW 3.2 mph 11.3 mph 93 % 0.0 in
06:45 3.1 °F 2.0 °F 1001.6 in SSW 4.8 mph 12.9 mph 93 % 0.0 in
07:00 3.1 °F 2.1 °F 1001.6 in SSW 3.2 mph 8.0 mph 93 % 0.0 in
07:15 3.2 °F 2.1 °F 1001.6 in SW 3.2 mph 9.7 mph 93 % 0.0 in
07:30 3.2 °F 2.2 °F 1001.2 in SSW 1.6 mph 6.4 mph 93 % 0.0 in
07:45 3.2 °F 2.2 °F 1001.2 in SSW 1.6 mph 4.8 mph 93 % 0.0 in
08:00 3.2 °F 2.1 °F 1001.2 in Calm   4.8 mph 93 % 0.0 in
08:15 3.2 °F 2.2 °F 1000.9 in SSW 1.6 mph 6.4 mph 93 % 0.0 in
08:30 3.2 °F 2.2 °F 1000.9 in Calm     93 % 0.0 in
08:45 3.2 °F 2.2 °F 1000.9 in Calm     93 % 0.0 in
09:00 3.3 °F 2.3 °F 1000.9 in Calm   4.8 mph 93 % 0.0 in
09:15 3.3 °F 2.3 °F 1000.6 in South 1.6 mph 6.4 mph 93 % 0.0 in
09:30 3.4 °F 2.4 °F 1000.6 in South 1.6 mph 6.4 mph 93 % 0.0 in
09:45 3.4 °F 2.4 °F 1000.2 in South 3.2 mph 9.7 mph 93 % 0.0 in
10:00 3.5 °F 2.5 °F 1000.2 in SSW 3.2 mph 12.9 mph 93 % 0.0 in
10:15 3.7 °F 2.6 °F 1000.2 in SW 3.2 mph 8.0 mph 93 % 0.0 in
10:30 3.8 °F 2.7 °F 999.9 in SSW 1.6 mph 8.0 mph 92 % 0.0 in
10:45 4.1 °F 2.9 °F 999.9 in SSW 3.2 mph 11.3 mph 92 % 0.0 in
11:00 4.2 °F 2.8 °F 999.5 in SSW 3.2 mph 8.0 mph 91 % 0.0 in
11:15 5.0 °F 3.3 °F 999.2 in SSW 3.2 mph 9.7 mph 89 % 0.0 in
11:30 5.3 °F 3.3 °F 999.2 in South 3.2 mph 8.0 mph 87 % 0.0 in
11:45 5.8 °F 3.7 °F 999.2 in South 4.8 mph 11.3 mph 86 % 0.0 in
12:00 5.9 °F 3.6 °F 999.2 in SSW 4.8 mph 12.9 mph 85 % 0.0 in
12:15 5.9 °F 3.4 °F 999.2 in SSW 4.8 mph 14.5 mph 84 % 0.0 in
12:30 6.0 °F 3.3 °F 999.2 in SSW 4.8 mph 12.9 mph 83 % 0.0 in
12:45 6.6 °F 3.5 °F 998.9 in SSW 6.4 mph 14.5 mph 81 % 0.0 in
13:00 6.8 °F 3.4 °F 998.9 in South 3.2 mph 12.9 mph 79 % 0.0 in
13:15 6.5 °F 3.3 °F 998.9 in SSW 4.8 mph 11.3 mph 80 % 0.0 in
13:30 7.4 °F 3.2 °F 998.9 in SSW 6.4 mph 17.7 mph 75 % 0.0 in
13:45 7.9 °F 3.2 °F 998.5 in South 6.4 mph 17.7 mph 72 % 0.0 in
14:00 8.2 °F 3.7 °F 998.5 in SSW 6.4 mph 17.7 mph 73 % 0.0 in
14:15 7.8 °F 3.2 °F 998.5 in SSW 6.4 mph 17.7 mph 73 % 0.0 in
14:30 7.4 °F 2.9 °F 998.5 in SSW 8.0 mph 24.1 mph 73 % 0.0 in
14:45 7.2 °F 2.6 °F 998.9 in SSW 8.0 mph 17.7 mph 73 % 0.0 in
15:00 7.2 °F 2.7 °F 998.5 in SSW 6.4 mph 17.7 mph 73 % 0.0 in
15:15 7.3 °F 2.8 °F 998.9 in SSW 3.2 mph 16.1 mph 73 % 0.0 in
15:30 7.7 °F 3.0 °F 998.9 in SSW 4.8 mph 17.7 mph 72 % 0.0 in
15:45 8.6 °F 3.0 °F 998.9 in WSW 3.2 mph 12.9 mph 68 % 0.0 in
16:00 8.7 °F 2.9 °F 998.9 in WSW 1.6 mph 8.0 mph 67 % 0.0 in
16:15 8.6 °F 3.2 °F 998.5 in SSW 3.2 mph 11.3 mph 69 % 0.0 in
16:30 8.3 °F 2.5 °F 998.9 in SSW 4.8 mph 11.3 mph 67 % 0.0 in
16:45 8.5 °F 2.3 °F 998.9 in SW 3.2 mph 9.7 mph 65 % 0.0 in
17:00 7.9 °F 2.0 °F 998.9 in SSW 6.4 mph 14.5 mph 66 % 0.0 in
17:15 8.3 °F 1.9 °F 998.9 in SSW 6.4 mph 14.5 mph 64 % 0.0 in
17:30 8.4 °F 1.6 °F 998.9 in SW 4.8 mph 11.3 mph 62 % 0.0 in
17:45 7.9 °F 1.7 °F 998.9 in SSW 9.7 mph 20.9 mph 65 % 0.0 in
18:00 7.7 °F 1.7 °F 998.9 in SSW 6.4 mph 11.3 mph 66 % 0.0 in
18:15 7.4 °F 1.7 °F 999.2 in SSW 6.4 mph 12.9 mph 67 % 0.0 in
18:30 7.3 °F 2.0 °F 999.2 in SW 3.2 mph 8.0 mph 69 % 0.0 in
18:45 6.9 °F 1.8 °F 999.2 in SW 3.2 mph 9.7 mph 70 % 0.0 in
19:00 6.8 °F 1.7 °F 999.5 in SSW 4.8 mph 11.3 mph 70 % 0.0 in
19:15 6.7 °F 1.8 °F 999.5 in SSW 1.6 mph 6.4 mph 71 % 0.0 in
19:30 6.5 °F 1.6 °F 999.9 in Calm   1.6 mph 71 % 0.0 in
19:45 6.1 °F 2.0 °F 1000.2 in Calm   1.6 mph 75 % 0.0 in
20:00 5.2 °F 1.8 °F 1000.6 in Calm   1.6 mph 79 % 0.0 in
20:15 4.4 °F 1.8 °F 1000.9 in Calm   1.6 mph 83 % 0.0 in
20:30 3.7 °F 1.7 °F 1000.9 in Calm     87 % 0.0 in
20:45 3.2 °F 1.4 °F 1001.2 in Calm     88 % 0.0 in
21:00 2.7 °F 1.1 °F 1001.2 in Calm     89 % 0.0 in
21:15 2.4 °F 0.9 °F 1001.2 in Calm     90 % 0.0 in
21:30 2.1 °F 0.7 °F 1001.2 in Calm     91 % 0.0 in
21:45 1.8 °F 0.6 °F 1001.6 in Calm     92 % 0.0 in
22:00 1.6 °F 0.4 °F 1001.9 in Calm     92 % 0.0 in
22:15 1.3 °F 0.2 °F 1001.6 in Calm     92 % 0.0 in
22:30 1.1 °F 0.0 °F 1001.9 in Calm     92 % 0.0 in
22:45 0.7 °F -0.3 °F 1001.9 in Calm     93 % 0.0 in
23:00 0.2 °F -1.0 °F 1002.3 in Calm     92 % 0.0 in
23:15 -0.3 °F -1.3 °F 1002.3 in Calm     93 % 0.0 in
23:30 -0.4 °F -1.3 °F 1002.3 in Calm     94 % 0.0 in
23:45 -0.3 °F -1.2 °F 1002.3 in Calm     94 % 0.0 in
Esan sääasema
Terveisin Weather Underground - 2.75 mb

Alkuperäinen skripti  Jim McMurry - jmcmurry@mwt.net Sovitettu myös templatelle  Wim van der Kuil - Leuven-Template.eu

Laitteet joita käytämme:

Sääasema
Davis VP2

Sääasemaohjelma
Cumulus

Sääaseman tietokone
Asus EeePC

Palveluntarjoaja
Suncomet

Davis VP2

Cumulus

Asus EeePC

Suncomet